Time;durP1;ratioP1;P1;durP2;ratioP2;P2;SDS_P1;SDS_P2;PMS_P1;PMS_P2;Temp;Humidity;BMP_temperature;BMP_pressure;BME280_temperature;BME280_humidity;BME280_pressure;Samples;Min_cycle;Max_cycle;Signal;HPM_P1;HPM_P2
2022/11/25 00:01:39;;;;;;;16.03;7.80;;;;;;;5.11;100.00;98991.81;5129881;28;20194;-79
2022/11/25 00:04:08;;;;;;;18.77;8.50;;;;;;;5.03;100.00;98983.47;5095247;28;20182;-79
2022/11/25 00:06:36;;;;;;;17.40;8.03;;;;;;;5.17;100.00;98982.81;5124680;28;20198;-79
2022/11/25 00:09:08;;;;;;;20.40;7.80;;;;;;;5.03;100.00;98977.34;5130315;28;20194;-79
2022/11/25 00:11:39;;;;;;;19.47;8.20;;;;;;;5.03;100.00;98978.22;5134080;28;20194;-79
2022/11/25 00:14:08;;;;;;;17.90;8.07;;;;;;;5.06;100.00;98975.44;5133796;28;20194;-79
2022/11/25 00:16:37;;;;;;;19.40;8.40;;;;;;;4.97;100.00;98977.63;5132665;28;20637;-79
2022/11/25 00:19:12;;;;;;;17.30;7.47;;;;;;;4.98;100.00;98980.16;5131473;27;20214;-79
2022/11/25 00:21:42;;;;;;;13.13;7.23;;;;;;;5.06;100.00;98985.09;5133007;27;20201;-79
2022/11/25 00:24:14;;;;;;;18.10;6.90;;;;;;;5.09;100.00;98975.28;5137750;27;20186;-79
2022/11/25 00:26:43;;;;;;;16.87;7.63;;;;;;;5.09;100.00;98979.69;5137773;27;20191;-79
2022/11/25 00:29:15;;;;;;;15.73;7.40;;;;;;;5.04;100.00;98981.69;5102285;27;20820;-79
2022/11/25 00:31:44;;;;;;;17.80;7.87;;;;;;;5.01;100.00;98976.53;5133321;27;20218;-79
2022/11/25 00:34:14;;;;;;;21.07;7.83;;;;;;;4.99;100.00;98978.41;5102246;27;20194;-79
2022/11/25 00:36:42;;;;;;;17.70;8.40;;;;;;;4.97;100.00;98964.50;5132632;27;20251;-79
2022/11/25 00:39:14;;;;;;;14.63;7.63;;;;;;;4.92;100.00;98967.31;5137509;27;20495;-79
2022/11/25 00:44:39;;;;;;;18.70;7.87;;;;;;;5.00;100.00;98978.31;5133175;27;20243;-79
2022/11/25 00:47:11;;;;;;;15.57;8.00;;;;;;;5.03;100.00;98966.84;5136022;27;20204;-79
2022/11/25 00:49:44;;;;;;;21.03;8.73;;;;;;;5.01;100.00;98971.31;5134372;27;20194;-80
2022/11/25 00:52:15;;;;;;;19.83;8.90;;;;;;;4.96;100.00;98981.16;5131374;27;20198;-80
2022/11/25 00:54:46;;;;;;;22.10;9.23;;;;;;;4.94;100.00;98975.13;5137233;27;20194;-80
2022/11/25 00:57:15;;;;;;;20.37;8.77;;;;;;;4.94;100.00;98977.75;5137096;27;20190;-79
2022/11/25 00:59:45;;;;;;;18.40;9.20;;;;;;;4.89;100.00;98976.19;5132879;27;20246;-79
2022/11/25 01:02:15;;;;;;;19.00;9.07;;;;;;;4.89;100.00;98978.81;5132655;27;20225;-79
2022/11/25 01:04:45;;;;;;;16.33;8.63;;;;;;;4.86;100.00;98980.72;5137658;27;20320;-79
2022/11/25 01:07:14;;;;;;;21.57;9.87;;;;;;;4.75;100.00;98978.56;5136918;27;20216;-79
2022/11/25 01:09:43;;;;;;;17.37;9.13;;;;;;;4.80;100.00;98987.06;5128033;27;20186;-79
2022/11/25 01:12:11;;;;;;;21.17;9.47;;;;;;;4.80;100.00;98988.84;5084611;27;20197;-80
2022/11/25 01:14:40;;;;;;;24.73;10.07;;;;;;;4.80;100.00;98988.84;5134972;27;20202;-80
2022/11/25 01:17:08;;;;;;;22.20;10.47;;;;;;;4.78;100.00;98982.81;5131145;27;20224;-80
2022/11/25 01:19:39;;;;;;;21.33;10.17;;;;;;;4.85;100.00;98986.88;5133535;27;20248;-79
2022/11/25 01:22:10;;;;;;;24.07;10.73;;;;;;;4.81;100.00;98988.78;5085755;27;20225;-79
2022/11/25 01:24:39;;;;;;;19.97;10.23;;;;;;;4.83;100.00;98986.09;5133996;27;20190;-79
2022/11/25 01:27:08;;;;;;;17.83;9.80;;;;;;;4.80;100.00;98978.34;5136450;27;20645;-79
2022/11/25 01:29:36;;;;;;;22.77;10.47;;;;;;;4.80;100.00;98984.44;5132829;27;20201;-79
2022/11/25 01:32:05;;;;;;;19.53;9.77;;;;;;;4.72;100.00;98983.06;5134655;27;20264;-80
2022/11/25 01:34:33;;;;;;;16.87;8.90;;;;;;;4.78;100.00;98988.91;5130976;27;20657;-79
2022/11/25 01:37:03;;;;;;;23.30;8.60;;;;;;;4.66;100.00;98986.81;5136548;27;20202;-80
2022/11/25 01:39:33;;;;;;;16.97;8.33;;;;;;;4.66;100.00;98992.06;5136076;27;20214;-80
2022/11/25 01:42:02;;;;;;;16.27;8.23;;;;;;;4.63;100.00;98988.72;5130834;27;20217;-80
2022/11/25 01:44:32;;;;;;;19.57;7.57;;;;;;;4.52;100.00;98986.53;5132426;27;20195;-79
2022/11/25 01:47:03;;;;;;;16.47;9.00;;;;;;;4.53;100.00;98988.25;5124766;27;20202;-79
2022/11/25 01:49:40;;;;;;;13.80;7.40;;;;;;;4.46;100.00;98978.94;5133725;27;20239;-80
2022/11/25 01:52:15;;;;;;;19.97;7.97;;;;;;;4.25;100.00;98985.94;5133224;27;20197;-80
2022/11/25 01:54:53;;;;;;;15.03;6.53;;;;;;;4.34;100.00;98975.06;5131831;27;20197;-80
2022/11/25 01:57:28;;;;;;;15.87;6.50;;;;;;;4.38;100.00;98974.03;5137648;27;20202;-79
2022/11/25 02:00:05;;;;;;;15.20;6.90;;;;;;;4.52;100.00;98976.06;5143734;27;20218;-79
2022/11/25 02:02:34;;;;;;;15.07;6.33;;;;;;;4.43;100.00;98966.81;5132589;27;20255;-80
2022/11/25 02:05:09;;;;;;;16.67;6.77;;;;;;;4.52;100.00;98971.66;5136275;27;20208;-79
2022/11/25 02:07:39;;;;;;;17.30;7.20;;;;;;;4.45;100.00;98958.91;5130607;27;20190;-80
2022/11/25 02:10:14;;;;;;;14.63;6.80;;;;;;;4.57;100.00;98958.38;5132636;27;20194;-80
2022/11/25 02:12:45;;;;;;;17.87;6.50;;;;;;;4.39;100.00;98962.63;5129776;27;20267;-80
2022/11/25 02:15:16;;;;;;;16.77;6.80;;;;;;;4.36;100.00;98959.28;5135775;27;20246;-80
2022/11/25 02:17:46;;;;;;;16.17;6.67;;;;;;;4.29;100.00;98959.53;5129903;27;20198;-80
2022/11/25 02:20:17;;;;;;;13.10;6.50;;;;;;;4.32;100.00;98958.53;5132670;27;20207;-80
2022/11/25 02:22:55;;;;;;;18.70;6.77;;;;;;;4.29;100.00;98949.03;5135603;27;20261;-80
2022/11/25 02:25:27;;;;;;;18.10;7.17;;;;;;;4.26;100.00;98951.81;5130074;27;20246;-80
2022/11/25 02:27:59;;;;;;;19.93;7.83;;;;;;;4.46;100.00;98958.81;5078841;27;20206;-80
2022/11/25 02:30:28;;;;;;;16.57;6.93;;;;;;;4.57;100.00;98951.34;5134279;27;20560;-80
2022/11/25 02:33:00;;;;;;;16.17;6.97;;;;;;;4.51;100.00;98953.38;5135236;27;20220;-80
2022/11/25 02:35:33;;;;;;;12.53;6.23;;;;;;;4.62;100.00;98947.66;5132135;27;20186;-80
2022/11/25 02:38:08;;;;;;;16.00;7.07;;;;;;;4.56;100.00;98957.50;5135036;27;20194;-80
2022/11/25 02:40:46;;;;;;;17.87;6.70;;;;;;;4.50;100.00;98952.53;5131306;27;20222;-80
2022/11/25 02:43:15;;;;;;;19.40;7.27;;;;;;;4.36;100.00;98951.41;5134591;27;20189;-80
2022/11/25 02:45:51;;;;;;;18.80;7.27;;;;;;;4.38;100.00;98957.44;5130687;27;20202;-80
2022/11/25 02:48:20;;;;;;;16.83;7.40;;;;;;;4.40;100.00;98959.06;5134716;27;20198;-79
2022/11/25 02:51:11;;;;;;;16.03;6.77;;;;;;;4.38;100.00;98950.44;5135122;27;20193;-80
2022/11/25 02:53:40;;;;;;;15.70;7.27;;;;;;;4.29;100.00;98956.91;5134727;27;20231;-79
2022/11/25 02:56:12;;;;;;;15.23;6.77;;;;;;;4.34;100.00;98967.19;5130109;27;20198;-80
2022/11/25 02:58:41;;;;;;;18.47;7.47;;;;;;;4.34;100.00;98963.72;5130732;27;20247;-80
2022/11/25 03:01:10;;;;;;;18.87;7.27;;;;;;;4.48;100.00;98967.47;5127823;27;20210;-79
2022/11/25 03:03:39;;;;;;;20.13;7.30;;;;;;;4.47;100.00;98973.63;5134793;27;20224;-80
2022/11/25 03:06:07;;;;;;;12.67;6.53;;;;;;;4.58;100.00;98973.19;5134743;27;20194;-80
2022/11/25 03:08:36;;;;;;;14.90;6.83;;;;;;;4.59;100.00;98974.88;5129879;27;20239;-80
2022/11/25 03:11:06;;;;;;;14.70;7.37;;;;;;;4.68;100.00;98979.75;5124592;27;20194;-80
2022/11/25 03:13:36;;;;;;;19.93;6.90;;;;;;;4.68;100.00;98973.63;5134562;27;20193;-79
2022/11/25 03:16:05;;;;;;;18.60;7.43;;;;;;;4.73;100.00;98975.16;5128487;27;20191;-80
2022/11/25 03:18:33;;;;;;;16.87;6.70;;;;;;;4.73;100.00;98969.91;5099264;27;20194;-80
2022/11/25 03:21:01;;;;;;;13.93;6.83;;;;;;;4.73;100.00;98972.53;5128697;27;20287;-80
2022/11/25 03:23:30;;;;;;;14.90;6.50;;;;;;;4.66;100.00;98975.47;5134425;27;20187;-80
2022/11/25 03:25:58;;;;;;;17.13;6.40;;;;;;;4.73;100.00;98972.53;5130170;27;20221;-80
2022/11/25 03:28:27;;;;;;;14.03;6.73;;;;;;;4.61;100.00;98970.41;5130505;27;20191;-80
2022/11/25 03:30:56;;;;;;;16.73;6.60;;;;;;;4.64;100.00;98972.94;5110016;27;20244;-80
2022/11/25 03:33:25;;;;;;;19.93;6.80;;;;;;;4.58;100.00;98971.41;5105417;28;20226;-79
2022/11/25 03:35:54;;;;;;;12.60;6.03;;;;;;;4.64;100.00;98969.47;5110801;28;20217;-80
2022/11/25 03:38:22;;;;;;;20.80;7.27;;;;;;;4.52;100.00;98962.94;5109414;28;20199;-79
2022/11/25 03:40:52;;;;;;;17.07;7.07;;;;;;;4.49;100.00;98955.22;5110330;28;20242;-79
2022/11/25 03:43:21;;;;;;;16.47;7.13;;;;;;;4.47;100.00;98964.94;5110757;28;20251;-79
2022/11/25 03:45:49;;;;;;;16.17;6.40;;;;;;;4.56;100.00;98965.38;5105695;28;20252;-79
2022/11/25 03:48:19;;;;;;;19.60;7.60;;;;;;;4.61;100.00;98959.94;5109994;28;20191;-80
2022/11/25 03:50:48;;;;;;;21.33;6.83;;;;;;;4.58;100.00;98960.06;5074434;28;20203;-79
2022/11/25 03:53:17;;;;;;;14.60;7.03;;;;;;;4.66;100.00;98965.84;5109246;28;20223;-79
2022/11/25 03:55:47;;;;;;;18.57;6.63;;;;;;;4.77;100.00;98963.59;5107735;28;20206;-80
2022/11/25 03:58:16;;;;;;;14.57;6.10;;;;;;;4.95;100.00;98963.72;5110309;28;20248;-80
2022/11/25 04:00:44;;;;;;;15.43;6.87;;;;;;;5.06;100.00;98970.19;5116512;28;20215;-79
2022/11/25 04:03:12;;;;;;;15.40;6.20;;;;;;;5.12;100.00;98967.31;5030614;28;20197;-80
2022/11/25 04:05:43;;;;;;;16.87;6.73;;;;;;;5.16;100.00;98965.38;5027213;28;20240;-80
2022/11/25 04:08:11;;;;;;;20.37;7.07;;;;;;;5.14;100.00;98973.31;5030592;28;20209;-79
2022/11/25 04:10:40;;;;;;;18.70;6.37;;;;;;;5.21;100.00;98965.16;5032560;28;20229;-79
2022/11/25 04:13:07;;;;;;;19.07;7.07;;;;;;;5.29;100.00;98970.91;5034840;28;20529;-79
2022/11/25 04:15:40;;;;;;;17.93;6.73;;;;;;;5.20;100.00;98966.94;5029004;28;20189;-79
2022/11/25 04:18:08;;;;;;;14.17;6.43;;;;;;;5.26;100.00;98961.41;4995293;28;20223;-79
2022/11/25 04:20:37;;;;;;;14.27;7.00;;;;;;;5.31;100.00;98956.81;5003510;28;20228;-80
2022/11/25 04:23:07;;;;;;;15.90;6.10;;;;;;;5.48;100.00;98956.00;5055837;28;20193;-79
2022/11/25 04:25:36;;;;;;;16.53;6.53;;;;;;;5.34;100.00;98958.44;5049602;28;20201;-79
2022/11/25 04:28:05;;;;;;;16.60;5.40;;;;;;;5.33;100.00;98965.47;5054499;28;20194;-79
2022/11/25 04:30:34;;;;;;;10.90;5.33;;;;;;;5.32;100.00;98965.53;5013590;28;20707;-79
2022/11/25 04:33:02;;;;;;;14.97;5.90;;;;;;;5.35;100.00;98981.16;5051917;28;20232;-79
2022/11/25 04:35:31;;;;;;;15.97;6.17;;;;;;;5.38;100.00;98968.72;5054317;28;20264;-79
2022/11/25 04:38:01;;;;;;;22.80;6.67;;;;;;;5.38;100.00;98975.75;5054384;28;20258;-79
2022/11/25 04:40:33;;;;;;;20.13;5.87;;;;;;;5.43;100.00;98979.03;5054046;28;20213;-79
2022/11/25 04:43:01;;;;;;;16.17;5.37;;;;;;;5.51;100.00;98981.31;5067351;27;20193;-79
2022/11/25 04:45:37;;;;;;;12.77;5.73;;;;;;;5.42;100.00;98975.56;5133367;27;20205;-79
2022/11/25 04:48:25;;;;;;;13.53;4.87;;;;;;;5.49;100.00;98978.72;5074190;28;20214;-79
2022/11/25 04:50:54;;;;;;;16.87;5.40;;;;;;;5.55;100.00;98975.84;5068146;28;20213;-80
2022/11/25 04:53:22;;;;;;;15.10;5.37;;;;;;;5.55;100.00;98975.84;5073753;28;20189;-79
2022/11/25 04:55:53;;;;;;;11.97;5.50;;;;;;;5.61;100.00;98975.56;5073981;28;20188;-79
2022/11/25 05:01:03;;;;;;;12.77;4.67;;;;;;;5.61;100.00;98972.06;5068144;28;20249;-80
2022/11/25 05:03:32;;;;;;;15.00;4.90;;;;;;;5.59;100.00;98958.13;5071409;28;20204;-79
2022/11/25 05:06:06;;;;;;;12.80;5.00;;;;;;;5.47;100.00;98963.03;5095729;27;20209;-79
2022/11/25 05:08:34;;;;;;;12.67;4.67;;;;;;;5.59;100.00;98964.25;5136561;27;20642;-79
2022/11/25 05:11:05;;;;;;;15.80;4.93;;;;;;;5.61;100.00;98972.94;5131415;27;20255;-79
2022/11/25 05:13:34;;;;;;;17.13;4.80;;;;;;;5.57;100.00;98975.75;5073495;28;20200;-79
2022/11/25 05:16:03;;;;;;;13.77;5.00;;;;;;;5.57;100.00;98981.00;5068596;28;20193;-79
2022/11/25 05:18:31;;;;;;;14.40;4.73;;;;;;;5.60;100.00;98979.09;5068318;28;20250;-79
2022/11/25 05:21:01;;;;;;;12.50;4.67;;;;;;;5.54;100.00;98978.53;5068645;28;20212;-79
2022/11/25 05:23:29;;;;;;;14.00;4.90;;;;;;;5.59;100.00;98980.00;5070833;28;20200;-79
2022/11/25 05:26:01;;;;;;;11.67;4.77;;;;;;;5.56;100.00;98980.16;5069131;28;20195;-79
2022/11/25 05:28:31;;;;;;;13.10;4.43;;;;;;;5.60;100.00;98981.75;5069317;28;20205;-79
2022/11/25 05:30:59;;;;;;;13.70;4.57;;;;;;;5.61;100.00;98986.06;5069499;28;20224;-79
2022/11/25 05:33:27;;;;;;;17.97;5.03;;;;;;;5.59;100.00;98985.25;5065299;28;20276;-79
2022/11/25 05:35:57;;;;;;;20.00;5.50;;;;;;;5.61;100.00;98993.09;5059222;28;20191;-79
2022/11/25 05:38:27;;;;;;;15.97;5.63;;;;;;;5.51;100.00;98991.81;5098080;28;20233;-79
2022/11/25 05:41:01;;;;;;;14.27;5.10;;;;;;;5.65;100.00;98995.50;5107595;28;20214;-79
2022/11/25 05:43:31;;;;;;;18.53;5.93;;;;;;;5.65;100.00;98989.38;5109938;28;20194;-79
2022/11/25 05:46:00;;;;;;;9.93;4.90;;;;;;;5.83;100.00;98996.41;5031661;28;20664;-79
2022/11/25 05:48:28;;;;;;;19.73;4.93;;;;;;;5.68;100.00;98992.72;5034663;28;20220;-79
2022/11/25 05:51:00;;;;;;;10.87;4.53;;;;;;;5.77;100.00;98988.81;5046269;28;20210;-80
2022/11/25 05:53:30;;;;;;;14.93;4.20;;;;;;;5.81;100.00;98992.16;5031024;28;20198;-79
2022/11/25 05:56:01;;;;;;;13.80;5.10;;;;;;;5.73;100.00;98988.09;4935700;29;20228;-79
2022/11/25 05:58:32;;;;;;;10.83;3.97;;;;;;;5.74;100.00;98991.59;4932730;29;20193;-79
2022/11/25 06:01:00;;;;;;;12.40;5.30;;;;;;;5.78;100.00;98987.88;4932020;29;20295;-80
2022/11/25 06:03:30;;;;;;;14.63;4.30;;;;;;;5.80;100.00;98987.84;4951083;28;20202;-79
2022/11/25 06:05:59;;;;;;;12.23;4.07;;;;;;;5.81;100.00;98981.66;5011817;28;20245;-80
2022/11/25 06:08:28;;;;;;;10.27;4.40;;;;;;;5.80;100.00;98979.94;5012659;28;20206;-79
2022/11/25 06:10:56;;;;;;;15.40;4.40;;;;;;;5.67;100.00;98967.38;5010059;28;20427;-79
2022/11/25 06:13:25;;;;;;;10.47;4.20;;;;;;;5.74;100.00;98968.78;5030878;28;20187;-79
2022/11/25 06:15:55;;;;;;;16.27;4.50;;;;;;;5.73;100.00;98980.22;5113637;28;20195;-79
2022/11/25 06:18:23;;;;;;;17.53;4.50;;;;;;;5.65;100.00;98981.50;5115059;28;20202;-79
2022/11/25 06:20:56;;;;;;;14.27;4.53;;;;;;;5.72;100.00;98981.16;5115064;28;20224;-79
2022/11/25 06:23:25;;;;;;;15.93;4.73;;;;;;;5.69;100.00;98983.06;5106971;28;20191;-79
2022/11/25 06:25:53;;;;;;;12.00;5.03;;;;;;;5.67;100.00;98990.16;5063300;28;20244;-79
2022/11/25 06:28:21;;;;;;;11.37;5.07;;;;;;;5.80;100.00;99003.59;5108320;28;20199;-79
2022/11/25 06:30:51;;;;;;;12.60;5.87;;;;;;;5.82;100.00;99017.50;5110442;28;20187;-80
2022/11/25 06:33:21;;;;;;;12.10;6.53;;;;;;;5.91;100.00;99027.63;5114574;28;20230;-79
2022/11/25 06:35:49;;;;;;;15.13;5.37;;;;;;;5.90;100.00;99031.16;5079066;28;20198;-79
2022/11/25 06:38:18;;;;;;;14.93;5.17;;;;;;;5.89;100.00;99027.66;5090433;28;20192;-79
2022/11/25 06:40:46;;;;;;;11.27;4.67;;;;;;;5.88;100.00;99015.44;5109099;28;20199;-79
2022/11/25 06:43:16;;;;;;;14.20;4.90;;;;;;;5.93;100.00;99012.63;5110964;28;20246;-79
2022/11/25 06:45:44;;;;;;;13.67;4.60;;;;;;;5.92;100.00;99008.31;5047674;28;20193;-79
2022/11/25 06:48:12;;;;;;;11.53;4.50;;;;;;;5.91;100.00;99011.84;5051611;28;20362;-79
2022/11/25 06:50:42;;;;;;;16.93;5.47;;;;;;;5.87;100.00;99016.34;5049212;28;20300;-79
2022/11/25 06:53:10;;;;;;;12.70;4.70;;;;;;;5.92;100.00;99009.16;5049165;28;20188;-79
2022/11/25 06:55:39;;;;;;;11.60;4.63;;;;;;;5.72;100.00;99014.47;5045682;28;20193;-79
2022/11/25 06:58:07;;;;;;;12.87;4.87;;;;;;;5.85;100.00;99018.22;5051657;28;20189;-79
2022/11/25 07:01:01;;;;;;;10.60;4.73;;;;;;;5.87;100.00;99016.34;5050288;28;20421;-80
2022/11/25 07:03:30;;;;;;;13.13;4.23;;;;;;;5.75;100.00;99009.91;5067678;28;20195;-80
2022/11/25 07:06:00;;;;;;;12.10;4.27;;;;;;;5.85;100.00;99010.31;5106593;28;20707;-80
2022/11/25 07:08:28;;;;;;;12.87;3.90;;;;;;;5.91;100.00;99012.72;5109526;28;20205;-80
2022/11/25 07:11:07;;;;;;;12.13;4.67;;;;;;;5.91;100.00;99025.00;5109623;28;20229;-79
2022/11/25 07:13:37;;;;;;;12.27;4.17;;;;;;;5.94;100.00;99030.94;5111253;28;20198;-79
2022/11/25 07:16:06;;;;;;;11.97;4.17;;;;;;;5.87;100.00;99029.50;5105671;28;20240;-79
2022/11/25 07:18:37;;;;;;;14.23;4.10;;;;;;;5.85;100.00;99035.75;5113954;28;20194;-79
2022/11/25 07:21:09;;;;;;;11.90;4.33;;;;;;;5.95;100.00;99032.66;5109573;28;20202;-79
2022/11/25 07:23:38;;;;;;;15.57;4.40;;;;;;;5.97;100.00;99032.56;5109627;28;20220;-79
2022/11/25 07:26:09;;;;;;;13.30;4.70;;;;;;;5.90;100.00;99033.78;5106741;28;20206;-79
2022/11/25 07:28:38;;;;;;;8.60;4.23;;;;;;;5.84;100.00;99028.78;5109878;28;20190;-79
2022/11/25 07:31:09;;;;;;;13.30;3.83;;;;;;;5.85;100.00;99027.88;5104392;28;20220;-79
2022/11/25 07:33:59;;;;;;;11.10;4.43;;;;;;;5.96;100.00;99028.25;5113468;28;20286;-79
2022/11/25 07:36:31;;;;;;;13.07;4.33;;;;;;;5.96;100.00;99031.72;5114831;28;20191;-79
2022/11/25 07:39:00;;;;;;;12.60;4.23;;;;;;;5.92;100.00;99029.31;5127152;28;20194;-79
2022/11/25 07:41:35;;;;;;;15.80;5.90;;;;;;;5.91;100.00;99036.38;5129813;27;20266;-79
2022/11/25 07:44:05;;;;;;;11.73;5.27;;;;;;;5.92;100.00;99038.06;5129087;27;20242;-79
2022/11/25 07:46:35;;;;;;;19.50;5.80;;;;;;;5.92;100.00;99038.06;5130221;28;20220;-79
2022/11/25 07:49:06;;;;;;;13.80;5.07;;;;;;;5.87;100.00;99042.63;5131404;28;20740;-80
2022/11/25 07:51:38;;;;;;;12.73;5.47;;;;;;;5.96;100.00;99052.75;5131736;28;20224;-79
2022/11/25 07:54:08;;;;;;;14.13;6.17;;;;;;;5.98;100.00;99050.94;5134350;28;20183;-80
2022/11/25 07:56:39;;;;;;;12.40;5.60;;;;;;;6.00;100.00;99054.34;5130909;28;20201;-79
2022/11/25 07:59:13;;;;;;;16.30;6.03;;;;;;;6.03;100.00;99059.44;5131185;28;20189;-79
2022/11/25 08:01:42;;;;;;;13.90;6.13;;;;;;;6.09;100.00;99068.81;5078646;28;20265;-79
2022/11/25 08:04:12;;;;;;;15.43;6.03;;;;;;;6.04;100.00;99060.28;5133844;28;20194;-79
2022/11/25 08:06:50;;;;;;;18.93;6.80;;;;;;;5.94;100.00;99059.88;5132169;28;20189;-79
2022/11/25 08:09:21;;;;;;;14.57;6.10;;;;;;;6.02;100.00;99064.78;5127544;28;20182;-79
2022/11/25 08:11:50;;;;;;;15.60;6.50;;;;;;;6.05;100.00;99072.50;5129566;28;20190;-79
2022/11/25 08:14:19;;;;;;;13.63;6.03;;;;;;;6.12;100.00;99071.28;5128191;28;20204;-80
2022/11/25 08:16:48;;;;;;;16.60;6.67;;;;;;;6.15;100.00;99079.03;5132712;28;20303;-79
2022/11/25 08:19:17;;;;;;;14.63;6.47;;;;;;;6.23;100.00;99076.03;5128384;28;20198;-79
2022/11/25 08:21:46;;;;;;;17.33;6.63;;;;;;;6.24;100.00;99065.44;5129809;28;20226;-80
2022/11/25 08:24:19;;;;;;;13.47;6.40;;;;;;;6.32;100.00;99073.81;5130120;28;20186;-79
2022/11/25 08:26:48;;;;;;;16.77;7.40;;;;;;;6.23;100.00;99081.31;5130082;28;20257;-79
2022/11/25 08:29:18;;;;;;;16.87;7.07;;;;;;;6.29;100.00;99070.50;5130757;28;20202;-79
2022/11/25 08:31:47;;;;;;;20.40;6.80;;;;;;;6.34;100.00;99075.53;5129755;28;20219;-79
2022/11/25 08:34:19;;;;;;;20.53;7.03;;;;;;;6.37;100.00;99081.50;5128805;28;20251;-79
2022/11/25 08:36:47;;;;;;;17.73;6.70;;;;;;;6.22;100.00;99076.97;5130228;28;20251;-79
2022/11/25 08:39:19;;;;;;;15.10;6.57;;;;;;;6.25;100.00;99090.81;5125576;28;20377;-79
2022/11/25 08:42:08;;;;;;;14.43;6.83;;;;;;;6.21;100.00;99078.75;5134537;27;20214;-79
2022/11/25 08:44:36;;;;;;;18.90;6.70;;;;;;;6.32;100.00;99076.47;5137331;27;20202;-79
2022/11/25 08:47:05;;;;;;;21.23;7.83;;;;;;;6.32;100.00;99078.22;5135927;27;20194;-79
2022/11/25 08:49:35;;;;;;;16.03;7.03;;;;;;;6.41;100.00;99079.56;5133551;27;20210;-79
2022/11/25 08:52:10;;;;;;;13.30;7.13;;;;;;;6.47;100.00;99087.19;5135814;27;20220;-80
2022/11/25 08:54:41;;;;;;;17.67;8.07;;;;;;;6.49;100.00;99091.44;5069673;28;20222;-79
2022/11/25 08:57:11;;;;;;;16.97;7.37;;;;;;;6.51;100.00;99091.34;5066559;28;20203;-79
2022/11/25 08:59:41;;;;;;;20.07;7.60;;;;;;;6.42;100.00;99076.00;5069998;28;20230;-79
2022/11/25 09:02:13;;;;;;;14.53;7.73;;;;;;;6.54;100.00;99091.19;5072778;28;20216;-80
2022/11/25 09:04:42;;;;;;;16.07;7.40;;;;;;;6.55;100.00;99085.84;5071096;28;20241;-79
2022/11/25 09:07:10;;;;;;;15.13;7.70;;;;;;;6.64;100.00;99102.13;5073767;28;20245;-79
2022/11/25 09:09:42;;;;;;;20.17;8.57;;;;;;;6.32;100.00;99100.13;5071360;28;20188;-79
2022/11/25 09:12:10;;;;;;;11.73;7.50;;;;;;;6.48;100.00;99102.03;5065170;28;20658;-79
2022/11/25 09:14:39;;;;;;;18.10;8.27;;;;;;;6.43;100.00;99111.91;5068988;28;20193;-79
2022/11/25 09:17:09;;;;;;;20.00;8.30;;;;;;;6.40;100.00;99107.66;5072377;28;20245;-80
2022/11/25 09:19:40;;;;;;;15.00;8.20;;;;;;;6.52;100.00;99119.38;5068444;28;20208;-79
2022/11/25 09:22:08;;;;;;;20.87;8.30;;;;;;;6.56;100.00;99115.66;5066754;28;20200;-80
2022/11/25 09:24:36;;;;;;;16.13;8.47;;;;;;;6.51;100.00;99109.78;5070691;27;20326;-79
2022/11/25 09:27:06;;;;;;;16.13;8.40;;;;;;;6.48;100.00;99118.69;5065589;28;20691;-79
2022/11/25 09:29:34;;;;;;;17.97;8.10;;;;;;;6.42;100.00;99123.38;5073140;28;20196;-79
2022/11/25 09:32:04;;;;;;;16.63;9.13;;;;;;;6.34;100.00;99117.59;5069951;28;20228;-79
2022/11/25 09:34:32;;;;;;;16.93;9.20;;;;;;;6.40;100.00;99120.81;5073819;28;20208;-80
2022/11/25 09:37:01;;;;;;;16.10;9.47;;;;;;;6.47;100.00;99135.38;5065415;28;20292;-79
2022/11/25 09:39:29;;;;;;;20.13;9.37;;;;;;;6.36;100.00;99136.78;5069456;28;20192;-79
2022/11/25 09:48:02;;;;;;;19.63;9.53;;;;;;;6.47;100.00;99140.66;5073654;28;20215;-79
2022/11/25 09:50:41;;;;;;;17.50;10.17;;;;;;;6.54;100.00;99151.72;5071998;28;20184;-79
2022/11/25 09:53:22;;;;;;;19.70;10.63;;;;;;;6.59;100.00;99145.31;5070956;28;20279;-79
2022/11/25 09:55:55;;;;;;;18.83;10.10;;;;;;;6.68;100.00;99148.44;5070919;28;20225;-79
2022/11/25 09:58:34;;;;;;;20.73;10.20;;;;;;;6.59;100.00;99149.72;5071478;28;20198;-79
2022/11/25 10:01:06;;;;;;;21.23;10.47;;;;;;;6.54;100.00;99154.34;5108194;28;20202;-79
2022/11/25 10:03:39;;;;;;;18.13;10.30;;;;;;;6.60;100.00;99157.53;5113568;28;20222;-79
2022/11/25 10:06:14;;;;;;;16.10;9.97;;;;;;;6.64;100.00;99160.03;5064520;28;20191;-79
2022/11/25 10:08:45;;;;;;;19.33;11.20;;;;;;;6.64;100.00;99162.66;5108800;28;20714;-79
2022/11/25 10:11:24;;;;;;;16.07;10.83;;;;;;;6.58;100.00;99169.94;5115239;28;20221;-79
2022/11/25 10:14:00;;;;;;;17.60;10.77;;;;;;;6.66;100.00;99173.94;5115317;28;20228;-79
2022/11/25 10:16:36;;;;;;;17.97;11.03;;;;;;;6.71;100.00;99174.59;5108613;28;20190;-79
2022/11/25 10:19:15;;;;;;;18.93;11.23;;;;;;;6.77;100.00;99176.94;5111961;28;20229;-80
2022/11/25 10:21:45;;;;;;;18.10;11.07;;;;;;;6.78;100.00;99182.13;5112044;28;20187;-80
2022/11/25 10:24:16;;;;;;;22.03;11.37;;;;;;;6.76;100.00;99186.63;5108915;28;20265;-80
2022/11/25 10:26:52;;;;;;;18.17;11.30;;;;;;;6.74;100.00;99183.19;5109048;28;20199;-79
2022/11/25 10:29:26;;;;;;;19.57;11.47;;;;;;;6.77;100.00;99179.59;5111820;28;20187;-79
2022/11/25 10:32:21;;;;;;;19.93;11.60;;;;;;;6.83;100.00;99185.38;5115901;27;20255;-79
2022/11/25 10:34:54;;;;;;;20.77;12.73;;;;;;;6.83;100.00;99188.00;5135505;27;20186;-79
2022/11/25 10:37:29;;;;;;;21.87;13.07;;;;;;;6.76;100.00;99188.41;5132592;27;20217;-80
2022/11/25 10:39:58;;;;;;;26.17;14.67;;;;;;;6.83;100.00;99187.16;5132269;27;20380;-79
2022/11/25 10:42:29;;;;;;;26.50;15.37;;;;;;;6.87;100.00;99192.22;5131536;27;20190;-79
2022/11/25 10:44:59;;;;;;;21.80;14.23;;;;;;;6.69;100.00;99193.09;5135040;27;20220;-80
2022/11/25 10:47:35;;;;;;;30.43;15.20;;;;;;;6.84;100.00;99197.63;5133768;27;20190;-79
2022/11/25 10:50:14;;;;;;;22.13;13.43;;;;;;;6.89;100.00;99198.25;5099562;27;20194;-79
2022/11/25 10:52:51;;;;;;;25.27;17.27;;;;;;;6.81;100.00;99200.41;5128004;27;20734;-79
2022/11/25 10:55:23;;;;;;;27.30;19.93;;;;;;;6.88;100.00;99199.19;5126189;27;20202;-80
2022/11/25 10:57:52;;;;;;;22.10;16.17;;;;;;;6.92;100.00;99197.25;5134895;27;20198;-79
2022/11/25 11:00:34;;;;;;;25.00;16.70;;;;;;;6.89;100.00;99202.69;5094799;27;20223;-80
2022/11/25 11:03:14;;;;;;;24.77;14.57;;;;;;;6.97;100.00;99200.53;5134741;27;20198;-79
2022/11/25 11:05:47;;;;;;;31.03;17.83;;;;;;;6.85;100.00;99201.97;5130229;27;20194;-79
2022/11/25 11:08:19;;;;;;;22.97;16.80;;;;;;;7.02;100.00;99210.81;5134658;27;20190;-79
2022/11/25 11:11:08;;;;;;;25.47;16.17;;;;;;;7.06;100.00;99212.41;5126255;27;20199;-79
2022/11/25 11:13:36;;;;;;;24.73;15.20;;;;;;;7.04;100.00;99214.22;5134541;27;20243;-79
2022/11/25 11:16:23;;;;;;;26.23;15.67;;;;;;;7.03;100.00;99209.88;5133330;27;20198;-80
2022/11/25 11:18:52;;;;;;;27.13;16.37;;;;;;;7.12;100.00;99223.47;5134810;27;20247;-80
2022/11/25 11:21:24;;;;;;;25.93;16.17;;;;;;;7.18;100.00;99222.31;5131575;27;20259;-80
2022/11/25 11:23:54;;;;;;;23.33;16.37;;;;;;;7.21;100.00;99227.44;5134189;27;20221;-80
2022/11/25 11:26:26;;;;;;;25.13;16.00;;;;;;;7.38;100.00;99232.72;5134635;27;20190;-79
2022/11/25 11:29:01;;;;;;;24.03;16.53;;;;;;;7.32;100.00;99232.16;5131487;27;20194;-79
2022/11/25 11:31:39;;;;;;;25.13;16.77;;;;;;;7.35;100.00;99234.66;5133000;27;20231;-80
2022/11/25 11:34:44;;;;;;;30.77;16.77;;;;;;;7.18;100.00;99235.50;5113654;28;20205;-79
2022/11/25 11:37:27;;;;;;;27.40;16.97;;;;;;;7.20;100.00;99238.91;5103602;28;20248;-80
2022/11/25 11:40:16;;;;;;;29.80;16.57;;;;;;;7.21;100.00;99248.50;5112288;28;20719;-80
2022/11/25 11:42:57;;;;;;;33.83;18.40;;;;;;;7.33;100.00;99244.41;5105375;28;20248;-80
2022/11/25 11:45:42;;;;;;;27.67;18.07;;;;;;;7.24;100.00;99244.84;5107893;28;20268;-80
2022/11/25 11:48:25;;;;;;;27.33;18.23;;;;;;;7.34;100.00;99246.13;5115458;28;20244;-80
2022/11/25 11:51:02;;;;;;;28.03;18.70;;;;;;;7.45;100.00;99249.09;5114801;28;20240;-80
2022/11/25 11:53:36;;;;;;;28.83;17.93;;;;;;;7.58;100.00;99249.31;5108527;28;20195;-80
2022/11/25 11:56:10;;;;;;;28.33;17.87;;;;;;;7.37;100.00;99248.63;5110783;28;20199;-80